Odenburg, Louisiana
Current Conditions -  °F | °C
As of 12:55 AM on Friday 31 Oct 2014 (Local Time) from KHZR Reporting Station
Clear Clear  
Wind Chill: 48°   Ceiling: Unl
Heat Index: 48°   Visibility: 10mi
Dew Point: 47°   Wind: 3mph
Humidity: 94%   Direction: 320°NW
Pressure: 30.08"   Gusts: NA
Location:  30.9317°N, 91.8606°W
Report Text: KHZR 310555Z AUTO 32003KT 10SM CLR 09/08 A3008 RMK AO2 T00900081 10170 20090 402310090
Loading
Personal Weather Stations






























Interactive Weather Map New forecast layout! Learn more

10-Day Weather Forecast

Advertisements
Track Severe Weather on mobile